Time;durP1;ratioP1;P1;durP2;ratioP2;P2;SDS_P1;SDS_P2;PMS_P1;PMS_P2;Temp;Humidity;BMP_temperature;BMP_pressure;BME280_temperature;BME280_humidity;BME280_pressure;Samples;Min_cycle;Max_cycle;Signal;HPM_P1;HPM_P2
2022/05/02 00:00:11;;;;;;;1.38;1.38;;;13.30;77.20;;;;;;5006936;28;20220;-72
2022/05/02 00:02:38;;;;;;;9.82;1.55;;;13.20;77.20;;;;;;5003784;28;20596;-73
2022/05/02 00:05:05;;;;;;;1.30;1.30;;;13.20;77.40;;;;;;5005756;28;20235;-72
2022/05/02 00:07:31;;;;;;;1.75;1.75;;;13.10;78.00;;;;;;5002355;28;20238;-73
2022/05/02 00:09:57;;;;;;;1.92;1.92;;;13.10;77.90;;;;;;5005944;28;20181;-71
2022/05/02 00:12:23;;;;;;;4.22;1.77;;;13.10;78.40;;;;;;5010800;28;20215;-73
2022/05/02 00:14:49;;;;;;;3.83;1.80;;;13.00;78.10;;;;;;5004272;28;20181;-72
2022/05/02 00:17:15;;;;;;;1.77;1.77;;;13.00;78.40;;;;;;5010725;28;21046;-71
2022/05/02 00:19:41;;;;;;;1.98;1.65;;;13.00;78.60;;;;;;5008257;28;20192;-72
2022/05/02 00:22:06;;;;;;;2.20;2.10;;;13.00;78.40;;;;;;5011213;28;20731;-73
2022/05/02 00:24:32;;;;;;;2.25;2.15;;;12.90;78.90;;;;;;5004015;28;20185;-71
2022/05/02 00:26:58;;;;;;;5.43;2.00;;;12.90;79.20;;;;;;5007284;28;20203;-71
2022/05/02 00:29:24;;;;;;;1.40;1.40;;;12.90;79.30;;;;;;5011096;28;20212;-72
2022/05/02 00:31:50;;;;;;;2.13;1.95;;;12.80;79.70;;;;;;5017406;28;20216;-72
2022/05/02 00:34:16;;;;;;;2.10;2.00;;;12.90;78.90;;;;;;5015865;28;20193;-73
2022/05/02 00:36:42;;;;;;;2.22;2.00;;;12.90;79.00;;;;;;5012471;28;20181;-72
2022/05/02 00:39:08;;;;;;;1.42;1.42;;;12.90;79.00;;;;;;5013763;28;20652;-72
2022/05/02 00:41:34;;;;;;;1.55;1.55;;;12.90;78.70;;;;;;5016751;28;20188;-72
2022/05/02 00:44:00;;;;;;;1.45;1.45;;;12.90;78.60;;;;;;5012485;28;20204;-72
2022/05/02 00:46:26;;;;;;;2.05;1.95;;;12.90;78.60;;;;;;5043082;28;20331;-72
2022/05/02 00:48:53;;;;;;;1.50;1.50;;;12.90;78.90;;;;;;5014667;28;20180;-72
2022/05/02 00:51:20;;;;;;;1.23;1.13;;;12.90;78.90;;;;;;5009782;28;20200;-71
2022/05/02 00:53:48;;;;;;;1.65;1.60;;;12.90;78.40;;;;;;5016976;28;20609;-71
2022/05/02 00:56:16;;;;;;;1.60;1.60;;;13.00;78.30;;;;;;5011821;28;20192;-71
2022/05/02 00:58:43;;;;;;;4.03;1.35;;;13.00;78.30;;;;;;5010779;28;20792;-72
2022/05/02 01:01:09;;;;;;;1.83;1.73;;;12.90;78.00;;;;;;5047836;28;20629;-72
2022/05/02 01:03:35;;;;;;;1.60;1.50;;;12.90;78.70;;;;;;5008968;28;20188;-71
2022/05/02 01:08:46;;;;;;;1.33;1.33;;;13.00;78.00;;;;;;5012503;28;20739;-71
2022/05/02 01:11:12;;;;;;;1.58;1.58;;;13.00;78.00;;;;;;5008179;28;20173;-72
2022/05/02 01:13:39;;;;;;;1.48;1.48;;;13.10;78.00;;;;;;5010621;28;20217;-72
2022/05/02 01:16:13;;;;;;;1.58;1.48;;;13.10;78.20;;;;;;5008138;28;20661;-72
2022/05/02 01:18:39;;;;;;;1.35;1.20;;;13.00;77.80;;;;;;5011665;28;20639;-72
2022/05/02 01:21:14;;;;;;;1.50;1.40;;;13.00;78.00;;;;;;5012416;28;20282;-72
2022/05/02 01:23:40;;;;;;;1.73;1.63;;;12.90;78.30;;;;;;5011434;28;20719;-72
2022/05/02 01:26:06;;;;;;;1.30;1.30;;;12.90;78.50;;;;;;5011922;28;20181;-72
2022/05/02 01:28:31;;;;;;;1.05;1.05;;;12.90;78.40;;;;;;5010996;28;20257;-72
2022/05/02 01:30:58;;;;;;;1.10;1.10;;;12.90;78.20;;;;;;5011000;28;20241;-72
2022/05/02 01:33:23;;;;;;;1.50;1.50;;;12.80;78.50;;;;;;5011806;28;20221;-72
2022/05/02 01:35:49;;;;;;;1.35;1.35;;;12.90;78.50;;;;;;5012576;28;20201;-73
2022/05/02 01:38:15;;;;;;;1.50;1.50;;;12.80;78.50;;;;;;5015103;28;20188;-73
2022/05/02 01:40:40;;;;;;;0.82;0.82;;;12.80;78.70;;;;;;5017992;28;20669;-73
2022/05/02 01:43:06;;;;;;;1.20;1.10;;;12.90;78.40;;;;;;5007558;28;20192;-72
2022/05/02 01:45:32;;;;;;;1.23;1.23;;;12.80;78.90;;;;;;5007234;28;20184;-72
2022/05/02 01:47:57;;;;;;;7.63;1.30;;;12.70;78.60;;;;;;5010826;28;20276;-71
2022/05/02 01:50:23;;;;;;;1.10;1.10;;;;;;;;;;5011578;28;20177;-72
2022/05/02 01:52:49;;;;;;;0.85;0.85;;;12.80;78.70;;;;;;5011249;28;20239;-71
2022/05/02 01:55:15;;;;;;;1.17;1.13;;;12.70;78.80;;;;;;5011060;28;20177;-71
2022/05/02 01:57:40;;;;;;;1.17;1.00;;;12.70;78.90;;;;;;5009392;28;20208;-72
2022/05/02 02:00:07;;;;;;;1.25;1.25;;;12.70;78.50;;;;;;5007729;28;20177;-72
2022/05/02 02:02:33;;;;;;;0.68;0.68;;;12.70;78.90;;;;;;5009337;28;20195;-71
2022/05/02 02:07:43;;;;;;;1.38;1.38;;;12.70;78.70;;;;;;5010213;28;20282;-72
2022/05/02 02:10:09;;;;;;;1.10;1.10;;;12.70;78.70;;;;;;5015157;28;20189;-71
2022/05/02 02:12:34;;;;;;;1.25;1.25;;;12.70;79.20;;;;;;5012240;28;20268;-71
2022/05/02 02:15:00;;;;;;;1.15;1.15;;;12.70;79.20;;;;;;5019118;28;20180;-71
2022/05/02 02:17:26;;;;;;;0.98;0.98;;;12.50;79.10;;;;;;5007062;28;20202;-72
2022/05/02 02:19:51;;;;;;;1.30;1.30;;;12.50;79.10;;;;;;5015017;28;20274;-72
2022/05/02 02:22:17;;;;;;;1.33;1.23;;;12.50;79.60;;;;;;5011164;28;20189;-71
2022/05/02 02:24:47;;;;;;;1.48;1.20;;;12.50;79.60;;;;;;5016517;28;20717;-71
2022/05/02 02:27:13;;;;;;;0.90;0.90;;;12.40;79.80;;;;;;5009121;28;20185;-71
2022/05/02 02:29:40;;;;;;;1.00;1.00;;;12.40;80.00;;;;;;5014274;28;20668;-71
2022/05/02 02:32:06;;;;;;;1.30;1.30;;;12.40;79.90;;;;;;5012511;28;20209;-72
2022/05/02 02:34:32;;;;;;;1.35;1.35;;;12.40;79.70;;;;;;5014963;28;20211;-72
2022/05/02 02:36:58;;;;;;;1.33;1.00;;;12.40;79.80;;;;;;5011726;28;20807;-71
2022/05/02 02:39:24;;;;;;;1.63;1.63;;;12.40;79.70;;;;;;5011201;28;20203;-72
2022/05/02 02:41:49;;;;;;;1.35;1.35;;;12.40;80.10;;;;;;5009471;28;20275;-72
2022/05/02 02:44:15;;;;;;;1.48;1.38;;;12.40;80.20;;;;;;5011068;28;20189;-71
2022/05/02 02:46:41;;;;;;;1.42;1.42;;;12.40;79.90;;;;;;5014734;28;20191;-71
2022/05/02 02:49:06;;;;;;;1.20;1.20;;;12.40;80.10;;;;;;5007677;28;20189;-72
2022/05/02 02:51:33;;;;;;;1.23;1.23;;;12.40;80.00;;;;;;5010047;28;20181;-72
2022/05/02 02:53:59;;;;;;;1.77;1.77;;;12.40;80.00;;;;;;5012001;28;20659;-71
2022/05/02 02:56:24;;;;;;;2.45;1.63;;;12.30;80.10;;;;;;5012758;28;20177;-71
2022/05/02 02:58:50;;;;;;;3.83;1.52;;;12.30;80.40;;;;;;5007738;28;20188;-71
2022/05/02 03:01:17;;;;;;;1.25;1.15;;;12.20;80.40;;;;;;5006527;28;20222;-72
2022/05/02 03:03:43;;;;;;;2.00;1.55;;;12.20;80.20;;;;;;5013425;28;20185;-72
2022/05/02 03:06:09;;;;;;;1.67;1.58;;;12.20;80.40;;;;;;5013623;28;20188;-72
2022/05/02 03:08:36;;;;;;;1.73;1.67;;;12.10;80.60;;;;;;5013862;28;20208;-72
2022/05/02 03:11:03;;;;;;;3.90;1.77;;;12.10;80.60;;;;;;5015618;28;20238;-71
2022/05/02 03:13:29;;;;;;;1.95;1.85;;;12.00;80.90;;;;;;5013858;28;20333;-71
2022/05/02 03:15:55;;;;;;;1.63;1.60;;;12.00;80.40;;;;;;5016320;28;20315;-71
2022/05/02 03:18:22;;;;;;;1.50;1.50;;;12.00;80.90;;;;;;5010859;28;20196;-71
2022/05/02 03:20:48;;;;;;;2.08;1.98;;;12.00;80.70;;;;;;5009315;28;20654;-72
2022/05/02 03:23:13;;;;;;;1.58;1.48;;;11.90;81.20;;;;;;5013119;28;20299;-72
2022/05/02 03:25:39;;;;;;;1.98;1.88;;;11.80;81.70;;;;;;5012374;28;20188;-72
2022/05/02 03:28:05;;;;;;;1.90;1.80;;;11.80;81.30;;;;;;5005749;28;20266;-72
2022/05/02 03:30:31;;;;;;;2.25;2.05;;;11.80;81.20;;;;;;5009201;28;20177;-72
2022/05/02 03:32:57;;;;;;;2.00;1.90;;;11.70;81.50;;;;;;5012671;28;20231;-72
2022/05/02 03:35:23;;;;;;;3.00;2.03;;;11.70;81.20;;;;;;5013055;28;20669;-71
2022/05/02 03:37:48;;;;;;;2.05;1.95;;;11.60;81.70;;;;;;5013289;28;20192;-71
2022/05/02 03:40:14;;;;;;;2.03;2.00;;;11.60;81.80;;;;;;5008017;28;20177;-72
2022/05/02 03:42:40;;;;;;;2.47;2.20;;;11.60;81.70;;;;;;5004126;28;20185;-71
2022/05/02 03:45:06;;;;;;;1.67;1.63;;;11.60;81.80;;;;;;5041307;28;20177;-72
2022/05/02 03:47:32;;;;;;;3.47;2.03;;;11.50;81.80;;;;;;5008119;28;20184;-72
2022/05/02 03:49:58;;;;;;;1.77;1.67;;;11.50;81.50;;;;;;5008669;28;20208;-72
2022/05/02 03:52:23;;;;;;;1.83;1.73;;;11.50;82.10;;;;;;5008083;28;20224;-72
2022/05/02 03:54:49;;;;;;;2.78;1.80;;;11.50;82.30;;;;;;5007828;28;20185;-71
2022/05/02 03:57:15;;;;;;;2.15;1.88;;;;;;;;;;5006525;28;20707;-71
2022/05/02 03:59:42;;;;;;;1.50;1.50;;;11.50;82.00;;;;;;5013018;28;20180;-71
2022/05/02 04:02:08;;;;;;;1.63;1.45;;;11.50;82.30;;;;;;5008417;28;20192;-72
2022/05/02 04:04:33;;;;;;;2.83;2.17;;;11.40;82.20;;;;;;5017105;28;20191;-71
2022/05/02 04:06:59;;;;;;;1.15;1.15;;;11.40;82.80;;;;;;5012252;28;20192;-71
2022/05/02 04:09:25;;;;;;;1.73;1.67;;;11.40;82.80;;;;;;5012759;28;20720;-72
2022/05/02 04:11:51;;;;;;;1.40;1.33;;;11.40;82.70;;;;;;5012134;28;20180;-72
2022/05/02 04:14:16;;;;;;;2.90;1.65;;;11.40;82.70;;;;;;5013489;28;20273;-71
2022/05/02 04:16:42;;;;;;;1.88;1.77;;;11.40;82.70;;;;;;5013475;28;20279;-71
2022/05/02 04:19:08;;;;;;;1.58;1.48;;;11.40;83.00;;;;;;5013659;28;20189;-71
2022/05/02 04:21:33;;;;;;;1.50;1.50;;;11.30;82.80;;;;;;5013979;28;20189;-71
2022/05/02 04:23:59;;;;;;;1.52;1.45;;;11.30;83.00;;;;;;5009318;28;20190;-71
2022/05/02 04:26:25;;;;;;;3.55;1.50;;;11.40;82.90;;;;;;5010571;28;20278;-72
2022/05/02 04:28:52;;;;;;;3.30;1.70;;;11.40;82.80;;;;;;5014882;28;20191;-71
2022/05/02 04:31:17;;;;;;;1.70;1.70;;;11.40;83.10;;;;;;5015741;28;20655;-72
2022/05/02 04:33:44;;;;;;;1.45;1.45;;;11.40;82.70;;;;;;5015588;28;20220;-72
2022/05/02 04:36:11;;;;;;;1.50;1.50;;;11.50;82.80;;;;;;5015248;28;20725;-72
2022/05/02 04:38:37;;;;;;;1.15;1.15;;;11.50;82.60;;;;;;5011671;28;20197;-72
2022/05/02 04:41:03;;;;;;;2.90;1.50;;;11.60;82.20;;;;;;5014439;28;20189;-72
2022/05/02 04:43:28;;;;;;;1.10;1.10;;;11.60;82.30;;;;;;5012007;28;20176;-72
2022/05/02 04:45:54;;;;;;;1.52;1.52;;;11.60;82.10;;;;;;5012623;28;20581;-72
2022/05/02 04:48:19;;;;;;;7.15;1.40;;;11.70;82.00;;;;;;5014456;28;20272;-73
2022/05/02 04:50:45;;;;;;;1.45;1.35;;;11.70;81.90;;;;;;5012210;28;20177;-71
2022/05/02 04:53:11;;;;;;;2.15;1.88;;;11.80;81.80;;;;;;5012474;28;20212;-71
2022/05/02 04:55:37;;;;;;;1.58;1.48;;;11.80;82.00;;;;;;5018526;28;20641;-71
2022/05/02 04:58:03;;;;;;;1.33;1.33;;;11.80;81.50;;;;;;5015624;28;20185;-72
2022/05/02 05:00:29;;;;;;;1.52;1.52;;;;;;;;;;5012544;28;20185;-71
2022/05/02 05:02:54;;;;;;;1.88;1.63;;;11.80;81.60;;;;;;5013047;28;20191;-71
2022/05/02 05:05:20;;;;;;;2.17;1.33;;;11.90;81.70;;;;;;5017595;28;20169;-71
2022/05/02 05:07:46;;;;;;;2.90;1.88;;;11.90;81.50;;;;;;5016757;28;20572;-71
2022/05/02 05:10:12;;;;;;;2.83;1.42;;;11.90;81.60;;;;;;5011999;28;20188;-71
2022/05/02 05:12:53;;;;;;;2.78;1.83;;;12.00;81.60;;;;;;5012000;28;20216;-71
2022/05/02 05:18:31;;;;;;;1.92;1.75;;;12.00;81.20;;;;;;5012899;28;20190;-72
2022/05/02 05:21:05;;;;;;;2.33;1.65;;;11.80;80.70;;;;;;5016113;28;20256;-72
2022/05/02 05:24:07;;;;;;;1.60;1.60;;;11.90;81.50;;;;;;5010954;28;20727;-72
2022/05/02 05:26:44;;;;;;;1.60;1.60;;;12.00;80.80;;;;;;5015659;28;20181;-72
2022/05/02 05:29:18;;;;;;;2.20;2.10;;;12.00;80.70;;;;;;5015743;28;20223;-72
2022/05/02 05:32:28;;;;;;;5.68;2.17;;;12.10;80.90;;;;;;5013229;28;20183;-73
2022/05/02 05:35:07;;;;;;;2.20;2.10;;;12.20;81.00;;;;;;4983949;28;20240;-72
2022/05/02 05:37:56;;;;;;;2.13;2.03;;;12.20;80.50;;;;;;4966874;28;20304;-72
2022/05/02 05:40:32;;;;;;;2.90;2.53;;;12.20;80.20;;;;;;4982624;28;20349;-71
2022/05/02 05:43:18;;;;;;;3.15;2.13;;;12.30;80.30;;;;;;4983214;28;20668;-73
2022/05/02 05:46:14;;;;;;;2.88;2.45;;;12.40;80.10;;;;;;4981763;28;20257;-72
2022/05/02 05:49:17;;;;;;;2.40;2.15;;;12.40;79.60;;;;;;4982616;28;20200;-72
2022/05/02 05:51:59;;;;;;;2.00;1.90;;;12.50;79.90;;;;;;4981323;28;20220;-71
2022/05/02 05:54:50;;;;;;;4.03;1.70;;;12.50;79.80;;;;;;4981772;28;20220;-71
2022/05/02 05:57:35;;;;;;;6.57;1.77;;;12.70;79.80;;;;;;4905689;29;20200;-71
2022/05/02 06:00:05;;;;;;;2.83;2.20;;;12.70;79.70;;;;;;4906586;29;20196;-71
2022/05/02 06:03:08;;;;;;;2.80;1.73;;;12.80;79.70;;;;;;4906282;29;21167;-71
2022/05/02 06:05:40;;;;;;;1.83;1.77;;;12.90;79.20;;;;;;4849285;29;20342;-72
2022/05/02 06:08:29;;;;;;;2.85;1.98;;;12.90;78.80;;;;;;4849359;29;20216;-72
2022/05/02 06:10:58;;;;;;;1.83;1.73;;;13.00;78.70;;;;;;4849480;29;20191;-72
2022/05/02 06:13:29;;;;;;;2.70;1.88;;;13.10;78.80;;;;;;4849087;29;20592;-72
2022/05/02 06:18:42;;;;;;;3.05;1.67;;;13.20;78.70;;;;;;4848870;29;20595;-74
2022/05/02 06:21:08;;;;;;;2.25;1.38;;;13.20;78.30;;;;;;4848305;29;20202;-72
2022/05/02 06:23:52;;;;;;;1.13;1.13;;;13.30;78.10;;;;;;4849200;29;20206;-74
2022/05/02 06:26:22;;;;;;;5.88;1.40;;;13.30;77.80;;;;;;4848712;29;20202;-73
2022/05/02 06:28:50;;;;;;;1.60;1.60;;;13.20;78.10;;;;;;4849000;29;20560;-73
2022/05/02 06:31:29;;;;;;;1.58;1.58;;;13.20;78.40;;;;;;4848574;29;20294;-73
2022/05/02 06:33:57;;;;;;;1.50;1.40;;;13.30;78.40;;;;;;4882854;28;20226;-73
2022/05/02 06:36:56;;;;;;;1.90;1.80;;;13.40;77.90;;;;;;4942429;28;20646;-72
2022/05/02 06:39:43;;;;;;;1.52;1.52;;;13.40;78.00;;;;;;4931773;28;20187;-73
2022/05/02 06:42:46;;;;;;;1.60;1.60;;;13.50;77.70;;;;;;4971662;28;20322;-73
2022/05/02 06:45:29;;;;;;;1.92;1.88;;;13.60;78.40;;;;;;5019538;28;20192;-73
2022/05/02 06:48:26;;;;;;;2.15;1.88;;;13.70;77.30;;;;;;5010977;28;20697;-73
2022/05/02 06:51:04;;;;;;;2.00;1.90;;;13.80;77.40;;;;;;5012790;28;20208;-73
2022/05/02 06:54:01;;;;;;;2.28;2.08;;;13.80;77.00;;;;;;5012032;28;20785;-72
2022/05/02 06:56:33;;;;;;;2.22;2.13;;;13.80;77.20;;;;;;5012500;28;20184;-74
2022/05/02 06:59:34;;;;;;;2.13;2.03;;;13.90;77.40;;;;;;5009906;28;20192;-73
2022/05/02 07:02:24;;;;;;;3.15;3.00;;;13.80;77.10;;;;;;5015851;28;20189;-74
2022/05/02 07:04:52;;;;;;;3.35;3.15;;;13.80;76.00;;;;;;5011524;28;20177;-73
2022/05/02 07:07:37;;;;;;;8.98;3.78;;;13.80;75.90;;;;;;5011255;28;21002;-74
2022/05/02 07:10:10;;;;;;;3.67;3.47;;;13.80;76.10;;;;;;5044316;28;20267;-73
2022/05/02 07:12:53;;;;;;;4.03;3.75;;;13.90;76.10;;;;;;5011940;28;20292;-73
2022/05/02 07:15:27;;;;;;;4.60;4.20;;;13.90;75.90;;;;;;5012365;28;20192;-73
2022/05/02 07:17:58;;;;;;;4.10;3.88;;;13.80;75.50;;;;;;5004882;28;20670;-73
2022/05/02 07:20:38;;;;;;;5.10;4.50;;;13.90;75.70;;;;;;5007842;28;20219;-72
2022/05/02 07:23:36;;;;;;;3.75;3.45;;;14.00;75.70;;;;;;5010591;28;20271;-72
2022/05/02 07:26:07;;;;;;;3.90;3.80;;;14.10;75.20;;;;;;5009556;28;20184;-72
2022/05/02 07:28:46;;;;;;;4.07;3.70;;;14.10;74.50;;;;;;5006603;28;20295;-73
2022/05/02 07:31:13;;;;;;;4.28;4.05;;;14.10;75.00;;;;;;5009770;28;20614;-73
2022/05/02 07:33:40;;;;;;;3.47;3.33;;;14.20;75.50;;;;;;5009810;28;20308;-73
2022/05/02 07:36:07;;;;;;;4.03;3.33;;;14.30;74.80;;;;;;5005692;28;20172;-72
2022/05/02 07:38:35;;;;;;;3.47;3.28;;;14.40;74.90;;;;;;5005759;28;20208;-75
2022/05/02 07:43:54;;;;;;;2.78;2.67;;;14.60;73.50;;;;;;5004112;28;20311;-75
2022/05/02 07:46:26;;;;;;;2.47;2.38;;;14.70;73.70;;;;;;5007436;28;20212;-77
2022/05/02 07:48:54;;;;;;;2.38;2.28;;;14.90;73.10;;;;;;5001893;28;20287;-75
2022/05/02 07:51:20;;;;;;;3.28;3.08;;;14.80;72.70;;;;;;5027399;28;20644;-73
2022/05/02 07:53:49;;;;;;;2.33;2.22;;;14.90;72.90;;;;;;5003833;28;20561;-75
2022/05/02 07:56:15;;;;;;;2.45;2.35;;;14.90;72.10;;;;;;5013767;28;20228;-75
2022/05/02 07:58:43;;;;;;;2.33;2.03;;;15.00;73.60;;;;;;5005969;28;20238;-75
2022/05/02 08:01:09;;;;;;;2.08;2.08;;;15.10;72.40;;;;;;5006656;28;20670;-74
2022/05/02 08:03:34;;;;;;;3.53;2.72;;;15.10;72.50;;;;;;5006181;28;20188;-77
2022/05/02 08:06:28;;;;;;;2.28;2.17;;;15.30;72.20;;;;;;5011993;28;20657;-76
2022/05/02 08:09:21;;;;;;;2.15;2.15;;;15.40;71.90;;;;;;5009100;28;20230;-76
2022/05/02 08:11:49;;;;;;;3.30;2.78;;;15.40;70.70;;;;;;5010901;28;20287;-76
2022/05/02 08:14:26;;;;;;;3.03;2.70;;;15.40;71.20;;;;;;5010372;28;20219;-74
2022/05/02 08:17:33;;;;;;;3.40;3.10;;;15.50;71.30;;;;;;5008669;28;20192;-76
2022/05/02 08:20:15;;;;;;;2.90;2.80;;;15.70;71.10;;;;;;4946861;28;20203;-75
2022/05/02 08:29:22;;;;;;;3.03;2.83;;;16.00;69.70;;;;;;4945476;28;20189;-76
2022/05/02 08:32:00;;;;;;;3.75;3.55;;;16.00;68.90;;;;;;4932725;28;20195;-75
2022/05/02 08:34:40;;;;;;;3.50;2.95;;;15.80;68.10;;;;;;4943054;28;20186;-75
2022/05/02 08:37:28;;;;;;;3.63;3.33;;;15.80;68.50;;;;;;4950216;28;20198;-77
2022/05/02 08:40:22;;;;;;;3.60;3.30;;;15.90;69.70;;;;;;4946575;28;20814;-74
2022/05/02 08:43:38;;;;;;;4.05;3.80;;;15.80;68.00;;;;;;4951357;28;20191;-76
2022/05/02 08:46:18;;;;;;;4.10;3.90;;;15.60;68.80;;;;;;4918613;29;20275;-76
2022/05/02 08:49:33;;;;;;;5.35;4.03;;;15.50;68.30;;;;;;4922194;29;20209;-76
2022/05/02 08:52:23;;;;;;;4.15;3.85;;;15.70;69.10;;;;;;4922041;29;20200;-76
2022/05/02 08:55:05;;;;;;;4.93;3.70;;;15.70;68.30;;;;;;4923203;29;20261;-76
2022/05/02 08:57:47;;;;;;;4.10;3.90;;;15.80;69.30;;;;;;4978523;28;21278;-78
2022/05/02 09:00:37;;;;;;;3.58;3.38;;;15.80;67.10;;;;;;4978239;28;20273;-77
2022/05/02 09:03:23;;;;;;;3.22;3.03;;;15.80;66.60;;;;;;4942237;28;20310;-79
2022/05/02 09:06:10;;;;;;;3.40;3.20;;;15.80;66.30;;;;;;4935754;28;20353;-77
2022/05/02 09:08:48;;;;;;;2.95;2.85;;;15.80;67.30;;;;;;4928858;28;20204;-76
2022/05/02 09:11:31;;;;;;;3.28;3.00;;;15.90;66.70;;;;;;4896384;28;20209;-77
2022/05/02 09:14:24;;;;;;;3.40;3.30;;;16.00;67.90;;;;;;4880618;28;20264;-77
2022/05/02 09:17:24;;;;;;;3.53;2.92;;;16.10;65.50;;;;;;4894218;28;20450;-77
2022/05/02 09:20:28;;;;;;;2.60;2.50;;;16.20;65.70;;;;;;4906494;28;20231;-76
2022/05/02 09:23:34;;;;;;;2.10;1.95;;;16.30;64.60;;;;;;4921585;28;20227;-77
2022/05/02 09:26:06;;;;;;;2.70;2.50;;;16.50;63.70;;;;;;4919116;28;20232;-77
2022/05/02 09:29:08;;;;;;;3.08;2.83;;;16.60;63.50;;;;;;4919327;28;20320;-77
2022/05/02 09:32:12;;;;;;;3.92;2.80;;;16.70;63.30;;;;;;4914656;28;20397;-78
2022/05/02 09:34:44;;;;;;;2.58;2.47;;;17.20;62.20;;;;;;4846713;28;20222;-77
2022/05/02 09:37:23;;;;;;;2.47;2.38;;;17.30;62.20;;;;;;4872284;28;20824;-76
2022/05/02 09:40:17;;;;;;;2.40;2.25;;;17.50;61.10;;;;;;4871997;28;20699;-77
2022/05/02 09:43:10;;;;;;;2.92;2.47;;;17.90;59.50;;;;;;4870677;28;20589;-76
2022/05/02 09:52:25;;;;;;;2.53;2.33;;;18.70;58.30;;;;;;4866822;28;20432;-77
2022/05/02 09:58:03;;;;;;;2.13;2.08;;;19.00;57.80;;;;;;4869711;28;20848;-76
2022/05/02 10:01:10;;;;;;;2.03;2.03;;;19.30;58.40;;;;;;4870089;28;20252;-76
2022/05/02 10:03:54;;;;;;;2.03;2.03;;;19.30;57.70;;;;;;4849267;29;20238;-77
2022/05/02 10:06:30;;;;;;;2.40;2.20;;;19.30;55.50;;;;;;4848868;29;20265;-77
2022/05/02 10:09:17;;;;;;;2.00;2.00;;;19.20;56.10;;;;;;4851083;29;20218;-77
2022/05/02 10:12:03;;;;;;;1.98;1.98;;;18.70;56.30;;;;;;4878730;28;20276;-77
2022/05/02 10:14:45;;;;;;;2.17;1.95;;;18.80;58.20;;;;;;4895022;28;20463;-77
2022/05/02 10:17:16;;;;;;;1.90;1.83;;;18.90;57.10;;;;;;4896132;28;20834;-77
2022/05/02 10:20:06;;;;;;;2.58;2.45;;;19.00;57.40;;;;;;4897181;28;20692;-76
2022/05/02 10:22:54;;;;;;;2.92;2.75;;;19.00;57.90;;;;;;4893837;28;20758;-76
2022/05/02 10:25:58;;;;;;;2.65;2.65;;;18.90;56.80;;;;;;4897254;28;20461;-76
2022/05/02 10:28:41;;;;;;;2.75;2.58;;;18.70;56.50;;;;;;4897606;28;20462;-77
2022/05/02 10:31:25;;;;;;;2.35;2.28;;;18.60;57.10;;;;;;4895199;28;20213;-77
2022/05/02 10:33:53;;;;;;;2.30;2.25;;;18.40;57.50;;;;;;4881699;28;20235;-77
2022/05/02 10:36:28;;;;;;;2.40;2.40;;;18.30;57.10;;;;;;4896428;28;20431;-77
2022/05/02 10:39:02;;;;;;;1.92;1.92;;;18.30;57.60;;;;;;4897085;28;20758;-76
2022/05/02 10:41:28;;;;;;;1.67;1.58;;;18.40;54.80;;;;;;4915011;28;20436;-77
2022/05/02 10:44:02;;;;;;;1.55;1.50;;;18.50;54.90;;;;;;4920229;28;20601;-77
2022/05/02 10:46:31;;;;;;;2.05;1.67;;;18.70;57.30;;;;;;4918108;28;21290;-77
2022/05/02 10:49:06;;;;;;;1.45;1.45;;;18.70;57.80;;;;;;4918608;28;20931;-77
2022/05/02 10:51:43;;;;;;;2.40;1.80;;;19.00;57.20;;;;;;4917111;28;20209;-77
2022/05/02 10:54:32;;;;;;;1.83;1.83;;;19.90;54.90;;;;;;4919208;28;20227;-77
2022/05/02 10:56:59;;;;;;;1.58;1.58;;;20.20;53.80;;;;;;4918643;28;20207;-77
2022/05/02 10:59:31;;;;;;;2.38;2.33;;;20.20;54.10;;;;;;4918987;28;20776;-78
2022/05/02 11:02:47;;;;;;;1.63;1.63;;;20.20;55.60;;;;;;4931609;28;21263;-77
2022/05/02 11:05:21;;;;;;;4.43;2.35;;;20.20;55.10;;;;;;4920240;28;20425;-77
2022/05/02 11:08:22;;;;;;;4.32;1.58;;;20.20;55.50;;;;;;4921503;28;20220;-75
2022/05/02 11:10:58;;;;;;;2.47;1.73;;;20.40;54.10;;;;;;4910183;29;20192;-76
2022/05/02 11:13:56;;;;;;;1.30;1.30;;;20.50;54.80;;;;;;4913310;29;20254;-76
2022/05/02 11:16:44;;;;;;;1.52;1.52;;;20.80;55.20;;;;;;4860644;29;20688;-75
2022/05/02 11:22:41;;;;;;;1.83;1.80;;;21.10;54.70;;;;;;4861490;29;20221;-75
2022/05/02 11:25:24;;;;;;;1.70;1.67;;;21.20;55.00;;;;;;4863296;29;20185;-79
2022/05/02 11:28:16;;;;;;;1.77;1.77;;;21.30;55.50;;;;;;4864901;29;20197;-78
2022/05/02 11:30:56;;;;;;;1.83;1.63;;;21.10;53.80;;;;;;4857028;29;20197;-78
2022/05/02 11:33:42;;;;;;;1.67;1.67;;;20.90;55.40;;;;;;4863462;29;20704;-79
2022/05/02 11:36:14;;;;;;;2.17;2.00;;;20.90;55.00;;;;;;4864437;29;20190;-80
2022/05/02 11:38:53;;;;;;;1.85;1.85;;;20.90;55.70;;;;;;4862156;29;20214;-77
2022/05/02 11:41:22;;;;;;;1.88;1.77;;;20.90;54.30;;;;;;4865859;29;20201;-77
2022/05/02 11:43:49;;;;;;;2.00;1.90;;;20.60;55.00;;;;;;4878594;29;20209;-74
2022/05/02 11:46:24;;;;;;;1.98;1.98;;;20.40;56.30;;;;;;4888560;29;20211;-75
2022/05/02 11:49:10;;;;;;;1.95;1.85;;;20.20;56.90;;;;;;4927110;28;20194;-75
2022/05/02 11:51:50;;;;;;;2.10;2.10;;;20.00;56.90;;;;;;4929783;29;20753;-75
2022/05/02 11:54:31;;;;;;;1.95;1.90;;;19.70;56.80;;;;;;4996978;28;20224;-76
2022/05/02 11:57:08;;;;;;;1.63;1.63;;;19.40;57.40;;;;;;5011643;28;20188;-77
2022/05/02 12:00:05;;;;;;;1.70;1.70;;;19.00;57.60;;;;;;5008694;28;20180;-76
2022/05/02 12:02:44;;;;;;;8.25;2.13;;;18.80;58.70;;;;;;5011290;28;20188;-75
2022/05/02 12:05:16;;;;;;;2.03;2.00;;;18.70;59.20;;;;;;5012192;28;20208;-75
2022/05/02 12:07:50;;;;;;;2.25;2.15;;;18.60;59.00;;;;;;5006509;28;20181;-73
2022/05/02 12:10:17;;;;;;;1.73;1.50;;;18.50;57.70;;;;;;5011757;28;20199;-76
2022/05/02 12:12:51;;;;;;;1.92;1.92;;;18.10;57.00;;;;;;5012232;28;20227;-76
2022/05/02 12:15:18;;;;;;;1.92;1.92;;;18.10;58.00;;;;;;5010720;28;20688;-75
2022/05/02 12:17:56;;;;;;;2.03;2.03;;;18.00;58.10;;;;;;5014561;28;20251;-76
2022/05/02 12:20:31;;;;;;;1.67;1.67;;;18.00;58.40;;;;;;5008423;28;20329;-75
2022/05/02 12:23:06;;;;;;;2.40;2.33;;;17.80;58.40;;;;;;5009795;28;20188;-75
2022/05/02 12:25:34;;;;;;;2.20;2.10;;;17.50;58.90;;;;;;5016112;28;20669;-74
2022/05/02 12:28:04;;;;;;;3.00;2.80;;;17.50;59.30;;;;;;5012763;28;20188;-75
2022/05/02 12:30:32;;;;;;;2.20;2.10;;;17.50;59.00;;;;;;5014125;28;20184;-74
2022/05/02 12:33:04;;;;;;;3.78;2.50;;;17.30;58.90;;;;;;5011027;28;21040;-76
2022/05/02 12:35:40;;;;;;;2.53;2.53;;;17.30;59.70;;;;;;5012451;28;20254;-76
2022/05/02 12:38:16;;;;;;;1.83;1.73;;;17.40;60.60;;;;;;5013643;28;20987;-75
2022/05/02 12:40:50;;;;;;;2.78;1.85;;;17.30;59.50;;;;;;5016930;28;20184;-76
2022/05/02 12:43:29;;;;;;;1.55;1.45;;;17.20;59.50;;;;;;5014669;28;20196;-74
2022/05/02 12:45:56;;;;;;;2.10;1.90;;;17.20;58.90;;;;;;5009413;28;20231;-73
2022/05/02 12:48:32;;;;;;;1.92;1.83;;;17.20;59.80;;;;;;5012001;28;20754;-74
2022/05/02 12:50:59;;;;;;;2.08;1.70;;;17.20;59.40;;;;;;5010600;28;20239;-72
2022/05/02 12:56:13;;;;;;;1.48;1.48;;;17.30;60.20;;;;;;5009569;28;20672;-74
2022/05/02 13:01:40;;;;;;;1.50;1.50;;;17.30;59.40;;;;;;5013376;28;20219;-74
2022/05/02 13:04:22;;;;;;;2.28;1.80;;;17.20;60.30;;;;;;5010104;28;20717;-76
2022/05/02 13:06:49;;;;;;;1.90;1.90;;;17.20;60.60;;;;;;5026966;28;20189;-76
2022/05/02 13:09:19;;;;;;;1.83;1.83;;;17.30;60.60;;;;;;5042638;28;20631;-76
2022/05/02 13:11:46;;;;;;;1.52;1.52;;;17.40;60.30;;;;;;5012121;28;20666;-75
2022/05/02 13:14:25;;;;;;;2.08;1.98;;;17.40;60.30;;;;;;5015233;28;20213;-74
2022/05/02 13:16:52;;;;;;;1.83;1.73;;;17.50;60.40;;;;;;5011479;28;20227;-75
2022/05/02 13:19:33;;;;;;;2.10;2.10;;;17.60;60.40;;;;;;5014437;28;20196;-75
2022/05/02 13:22:00;;;;;;;1.65;1.65;;;17.50;60.50;;;;;;5028141;28;20584;-74
2022/05/02 13:24:25;;;;;;;3.05;1.80;;;17.50;60.70;;;;;;5016745;28;20188;-75
2022/05/02 13:27:09;;;;;;;2.28;2.08;;;17.40;60.80;;;;;;5010403;28;20584;-74
2022/05/02 13:29:56;;;;;;;1.95;1.85;;;17.40;61.40;;;;;;5017799;28;20212;-75
2022/05/02 13:32:51;;;;;;;1.70;1.70;;;17.30;61.00;;;;;;5010697;28;20625;-77
2022/05/02 13:35:25;;;;;;;2.05;1.90;;;17.30;60.60;;;;;;5012836;28;20185;-77
2022/05/02 13:38:06;;;;;;;1.77;1.77;;;17.30;59.80;;;;;;5026847;28;20185;-77
2022/05/02 13:40:43;;;;;;;1.58;1.58;;;17.30;60.10;;;;;;5011192;28;20188;-76
2022/05/02 13:43:23;;;;;;;1.80;1.70;;;17.40;60.40;;;;;;5008848;28;20269;-77
2022/05/02 13:46:08;;;;;;;1.42;1.38;;;17.40;60.80;;;;;;5027115;28;20226;-76
2022/05/02 13:48:51;;;;;;;1.50;1.50;;;17.50;59.70;;;;;;5012424;28;20749;-76
2022/05/02 13:51:33;;;;;;;1.10;1.10;;;17.50;59.70;;;;;;5009963;28;20274;-76
2022/05/02 13:54:04;;;;;;;1.30;1.30;;;17.50;60.00;;;;;;5010937;28;20212;-75
2022/05/02 13:57:24;;;;;;;1.88;1.77;;;17.10;59.50;;;;;;5013004;28;20209;-78
2022/05/02 13:59:58;;;;;;;1.30;1.30;;;17.10;59.60;;;;;;4960833;28;20240;-77
2022/05/02 14:03:10;;;;;;;1.75;1.63;;;16.90;60.10;;;;;;4961983;28;20212;-77
2022/05/02 14:05:58;;;;;;;1.25;1.25;;;16.90;60.90;;;;;;4962074;28;20193;-77